Riverton, Illinois
Current Conditions -  °F | °C
As of 7:52 PM on Wednesday 17 Dec 2014 (Local Time) from KSPI Reporting Station
Clear Clear  
Wind Chill: 16°   Ceiling: Unl
Heat Index: 22°   Visibility: 10mi
Dew Point: 17°   Wind: 5mph
Humidity: 82%   Direction: 110°ESE
Pressure: 30.3"   Gusts: NA
Location:  39.84°N, 89.54°W
Report Text: KSPI 180152Z 11004KT 10SM CLR M06/M08 A3030 RMK AO2 SLP269 T10561083
Loading
Personal Weather Stations






























Interactive Weather Map New forecast layout! Learn more

10-Day Weather Forecast

Advertisements
Track Severe Weather on mobile